Time;durP1;ratioP1;P1;durP2;ratioP2;P2;SDS_P1;SDS_P2;PMS_P1;PMS_P2;Temp;Humidity;BMP_temperature;BMP_pressure;BME280_temperature;BME280_humidity;BME280_pressure;Samples;Min_cycle;Max_cycle;Signal;HPM_P1;HPM_P2
2021/12/12 00:00:45;;;;;;;29.75;17.00;;;;;;;;;;4773651;30;20055;-76
2021/12/12 00:03:22;;;;;;;33.33;17.13;;;;;;;;;;4789184;30;20055;-74
2021/12/12 00:05:55;;;;;;;29.45;18.33;;;;;;;;;;4783894;29;20468;-74
2021/12/12 00:08:22;;;;;;;30.70;18.98;;;;;;;;;;4790306;29;20135;-75
2021/12/12 00:10:50;;;;;;;35.92;19.75;;;;;;;;;;4790005;29;20062;-75
2021/12/12 00:13:20;;;;;;;31.35;18.48;;;;;;;;;;4806398;29;20432;-76
2021/12/12 00:15:46;;;;;;;31.33;18.08;;;;;;;;;;4791407;29;20069;-74
2021/12/12 00:18:12;;;;;;;33.38;18.98;;;;;;;;;;4806998;29;20074;-75
2021/12/12 00:20:38;;;;;;;31.50;19.02;;;;;;;;;;4807578;29;20059;-76
2021/12/12 00:23:05;;;;;;;32.78;19.13;;;;;;;;;;4789462;29;20047;-76
2021/12/12 00:25:34;;;;;;;30.27;18.23;;;;;;;;;;4789343;30;20063;-75
2021/12/12 00:28:00;;;;;;;32.80;19.45;;;;;;;;;;4788943;30;20055;-74
2021/12/12 00:30:27;;;;;;;33.00;19.10;;;;;;;;;;4781652;29;20451;-76
2021/12/12 00:32:54;;;;;;;32.65;19.23;;;;;;;;;;4806142;29;20046;-74
2021/12/12 00:35:21;;;;;;;34.10;19.52;;;;;;;;;;4807342;29;20050;-76
2021/12/12 00:37:49;;;;;;;31.75;19.58;;;;;;;;;;4806225;29;20596;-74
2021/12/12 00:40:25;;;;;;;29.77;18.55;;;;;;;;;;4807165;29;20082;-75
2021/12/12 00:42:53;;;;;;;30.27;19.58;;;;;;;;;;4790831;29;20067;-75
2021/12/12 00:45:19;;;;;;;32.78;19.42;;;;;;;;;;4806783;29;20051;-76
2021/12/12 00:47:46;;;;;;;33.55;18.10;;;;;;;;;;4790934;29;20138;-75
2021/12/12 00:50:15;;;;;;;31.20;19.02;;;;;;;;;;4790962;29;20122;-76
2021/12/12 00:52:42;;;;;;;34.75;20.75;;;;;;;;;;4793256;29;20139;-75
2021/12/12 00:55:08;;;;;;;35.08;20.08;;;;;;;;;;4806606;29;20133;-74
2021/12/12 00:57:34;;;;;;;30.13;19.80;;;;;;;;;;4806726;29;20119;-75
2021/12/12 01:00:00;;;;;;;35.55;20.65;;;;;;;;;;4806635;29;20476;-75
2021/12/12 01:02:30;;;;;;;32.78;20.02;;;;;;;;;;4806320;29;20058;-76
2021/12/12 01:04:57;;;;;;;32.53;20.30;;;;;;;;;;4790549;29;20051;-75
2021/12/12 01:07:26;;;;;;;34.83;20.95;;;;;;;;;;4790184;29;20454;-76
2021/12/12 01:09:54;;;;;;;32.90;19.85;;;;;;;;;;4791166;29;20082;-75
2021/12/12 01:12:22;;;;;;;35.03;21.10;;;;;;;;;;4790856;29;20372;-77
2021/12/12 01:14:50;;;;;;;36.60;21.40;;;;;;;;;;4790566;29;20059;-76
2021/12/12 01:17:19;;;;;;;37.88;20.75;;;;;;;;;;4790538;29;20055;-77
2021/12/12 01:19:51;;;;;;;39.70;20.98;;;;;;;;;;4805571;29;20128;-76
2021/12/12 01:22:26;;;;;;;42.58;23.08;;;;;;;;;;4790944;29;20066;-76
2021/12/12 01:24:53;;;;;;;40.80;22.02;;;;;;;;;;4793993;29;20055;-76
2021/12/12 01:27:20;;;;;;;32.65;20.65;;;;;;;;;;4793455;29;20050;-77
2021/12/12 01:29:49;;;;;;;35.03;20.08;;;;;;;;;;4794166;29;20053;-76
2021/12/12 01:32:23;;;;;;;32.17;20.58;;;;;;;;;;4793350;29;20054;-76
2021/12/12 01:34:51;;;;;;;38.83;20.70;;;;;;;;;;4809550;29;20069;-77
2021/12/12 01:39:52;;;;;;;32.72;21.05;;;;;;;;;;4793551;29;20059;-76
2021/12/12 01:42:22;;;;;;;38.00;21.48;;;;;;;;;;4809498;29;20468;-76
2021/12/12 01:44:58;;;;;;;36.80;20.95;;;;;;;;;;4793573;29;20075;-76
2021/12/12 01:47:29;;;;;;;41.22;21.58;;;;;;;;;;4793211;29;20054;-77
2021/12/12 01:49:57;;;;;;;38.25;21.50;;;;;;;;;;4808485;29;20062;-76
2021/12/12 01:52:25;;;;;;;31.98;19.98;;;;;;;;;;4808544;29;20065;-75
2021/12/12 01:54:54;;;;;;;32.83;21.23;;;;;;;;;;4809417;29;20050;-77
2021/12/12 01:57:32;;;;;;;38.78;22.08;;;;;;;;;;4793023;29;20051;-75
2021/12/12 01:59:59;;;;;;;40.90;23.42;;;;;;;;;;4799925;29;20115;-77
2021/12/12 02:02:27;;;;;;;43.50;22.73;;;;;;;;;;4808026;29;20057;-75
2021/12/12 02:04:56;;;;;;;36.95;21.33;;;;;;;;;;4808228;29;20523;-76
2021/12/12 02:07:26;;;;;;;37.50;21.85;;;;;;;;;;4807692;29;20120;-76
2021/12/12 02:09:53;;;;;;;34.28;21.15;;;;;;;;;;4808311;29;20154;-75
2021/12/12 02:12:22;;;;;;;40.08;23.00;;;;;;;;;;4793042;29;20134;-78
2021/12/12 02:14:48;;;;;;;40.95;23.65;;;;;;;;;;4808165;29;20062;-76
2021/12/12 02:17:21;;;;;;;42.72;24.25;;;;;;;;;;4807772;29;20506;-77
2021/12/12 02:22:50;;;;;;;33.22;20.35;;;;;;;;;;4792511;29;20160;-76
2021/12/12 02:36:18;;;;;;;42.08;21.83;;;;;;;;;;4807877;29;20146;-77
2021/12/12 02:38:45;;;;;;;42.30;24.42;;;;;;;;;;4793157;29;20096;-77
2021/12/12 02:41:12;;;;;;;44.28;24.58;;;;;;;;;;4808611;29;20058;-77
2021/12/12 02:43:44;;;;;;;39.28;22.98;;;;;;;;;;4792232;29;20145;-77
2021/12/12 02:46:13;;;;;;;35.67;23.38;;;;;;;;;;4792552;29;20062;-78
2021/12/12 02:48:41;;;;;;;40.85;23.60;;;;;;;;;;4807573;29;20094;-78
2021/12/12 02:51:09;;;;;;;39.75;23.52;;;;;;;;;;4792809;29;20071;-77
2021/12/12 02:53:38;;;;;;;38.72;24.00;;;;;;;;;;4792152;29;20484;-78
2021/12/12 02:56:11;;;;;;;39.78;22.65;;;;;;;;;;4774109;29;20066;-80
2021/12/12 02:58:38;;;;;;;41.92;23.02;;;;;;;;;;4774637;30;20441;-78
2021/12/12 03:01:20;;;;;;;33.17;22.63;;;;;;;;;;4782272;29;20058;-78
2021/12/12 03:03:46;;;;;;;33.28;18.77;;;;;;;;;;4792681;29;20050;-80
2021/12/12 03:06:15;;;;;;;27.67;19.42;;;;;;;;;;4792637;29;20055;-80
2021/12/12 03:08:42;;;;;;;35.08;22.33;;;;;;;;;;4791659;29;20393;-79
2021/12/12 03:11:09;;;;;;;29.88;19.52;;;;;;;;;;4788355;30;20063;-79
2021/12/12 03:13:36;;;;;;;30.95;19.55;;;;;;;;;;4773808;29;20423;-81
2021/12/12 03:16:02;;;;;;;27.95;19.17;;;;;;;;;;4785523;29;20481;-79
2021/12/12 03:18:40;;;;;;;30.05;18.75;;;;;;;;;;4759380;30;20189;-77
2021/12/12 03:21:15;;;;;;;29.95;18.98;;;;;;;;;;4782356;29;20055;-80
2021/12/12 03:23:42;;;;;;;30.75;18.67;;;;;;;;;;4776815;29;20057;-80
2021/12/12 03:26:09;;;;;;;29.77;19.02;;;;;;;;;;4776360;29;20042;-80
2021/12/12 03:28:38;;;;;;;30.02;18.33;;;;;;;;;;4777334;29;20073;-78
2021/12/12 03:31:06;;;;;;;27.13;17.50;;;;;;;;;;4791510;29;20055;-78
2021/12/12 03:33:32;;;;;;;25.58;18.17;;;;;;;;;;4791571;29;20053;-79
2021/12/12 03:36:00;;;;;;;27.30;17.50;;;;;;;;;;4791369;29;20061;-79
2021/12/12 03:38:28;;;;;;;26.02;18.63;;;;;;;;;;4791845;29;20066;-78
2021/12/12 03:40:57;;;;;;;24.77;18.00;;;;;;;;;;4791696;29;20070;-76
2021/12/12 03:43:23;;;;;;;25.25;18.02;;;;;;;;;;4776706;29;20098;-78
2021/12/12 03:45:49;;;;;;;29.02;20.30;;;;;;;;;;4775980;29;20065;-79
2021/12/12 03:48:24;;;;;;;27.70;18.85;;;;;;;;;;4807635;29;20046;-78
2021/12/12 03:50:52;;;;;;;24.58;17.58;;;;;;;;;;4773250;30;20055;-79
2021/12/12 03:53:19;;;;;;;25.90;18.27;;;;;;;;;;4773175;30;20429;-76
2021/12/12 03:55:47;;;;;;;25.25;17.77;;;;;;;;;;4774176;30;20059;-78
2021/12/12 03:58:13;;;;;;;28.95;19.02;;;;;;;;;;4789337;30;20066;-76
2021/12/12 04:00:45;;;;;;;27.50;18.33;;;;;;;;;;4776118;29;20126;-76
2021/12/12 04:03:12;;;;;;;25.42;17.88;;;;;;;;;;4791270;29;20054;-77
2021/12/12 04:05:38;;;;;;;25.63;18.23;;;;;;;;;;4807130;29;20086;-78
2021/12/12 04:08:05;;;;;;;26.25;16.90;;;;;;;;;;4790923;29;20070;-76
2021/12/12 04:10:32;;;;;;;21.95;15.68;;;;;;;;;;4791636;29;20063;-77
2021/12/12 04:12:58;;;;;;;25.33;17.48;;;;;;;;;;4784140;30;20059;-76
2021/12/12 04:15:25;;;;;;;23.92;16.40;;;;;;;;;;4777155;29;20055;-76
2021/12/12 04:17:51;;;;;;;24.48;17.40;;;;;;;;;;4790566;29;20051;-78
2021/12/12 04:20:19;;;;;;;24.85;17.05;;;;;;;;;;4807123;29;20376;-76
2021/12/12 04:22:46;;;;;;;27.98;17.48;;;;;;;;;;4806678;29;20057;-76
2021/12/12 04:25:12;;;;;;;22.63;15.88;;;;;;;;;;4806879;29;20059;-76
2021/12/12 04:27:38;;;;;;;23.08;16.77;;;;;;;;;;4807022;29;20055;-78
2021/12/12 04:30:06;;;;;;;24.05;16.50;;;;;;;;;;4806839;29;20209;-78
2021/12/12 04:32:32;;;;;;;22.30;15.95;;;;;;;;;;4806972;29;20047;-75
2021/12/12 04:35:01;;;;;;;23.40;15.93;;;;;;;;;;4806862;29;20058;-77
2021/12/12 04:37:27;;;;;;;24.25;16.92;;;;;;;;;;4806997;29;20055;-77
2021/12/12 04:39:57;;;;;;;25.20;16.10;;;;;;;;;;4791444;29;20059;-77
2021/12/12 04:42:31;;;;;;;22.45;15.68;;;;;;;;;;4790050;29;20084;-77
2021/12/12 04:45:17;;;;;;;22.40;15.93;;;;;;;;;;4797713;29;20043;-76
2021/12/12 04:50:53;;;;;;;21.70;15.00;;;;;;;;;;4806778;29;20059;-77
2021/12/12 04:53:26;;;;;;;21.10;14.85;;;;;;;;;;4806558;29;20131;-77
2021/12/12 04:56:07;;;;;;;23.05;15.43;;;;;;;;;;4790364;29;20054;-76
2021/12/12 04:58:41;;;;;;;21.10;15.10;;;;;;;;;;4808158;29;20059;-76
2021/12/12 05:01:10;;;;;;;21.85;15.73;;;;;;;;;;4810343;29;20059;-77
2021/12/12 05:03:36;;;;;;;23.73;15.50;;;;;;;;;;4794650;29;20063;-77
2021/12/12 05:06:07;;;;;;;20.88;15.10;;;;;;;;;;4810085;29;20070;-77
2021/12/12 05:08:56;;;;;;;19.77;15.05;;;;;;;;;;4810301;29;20067;-76
2021/12/12 05:11:35;;;;;;;21.02;14.90;;;;;;;;;;4809139;29;20422;-77
2021/12/12 05:14:10;;;;;;;20.70;14.27;;;;;;;;;;4808982;29;20380;-76
2021/12/12 05:16:38;;;;;;;20.73;14.50;;;;;;;;;;4794017;29;20054;-76
2021/12/12 05:19:15;;;;;;;21.10;14.35;;;;;;;;;;4810046;29;20115;-76
2021/12/12 05:21:50;;;;;;;22.58;15.45;;;;;;;;;;4794056;29;20432;-77
2021/12/12 05:24:17;;;;;;;22.25;15.52;;;;;;;;;;4793737;29;20063;-77
2021/12/12 05:26:44;;;;;;;18.83;13.20;;;;;;;;;;4808968;29;20047;-76
2021/12/12 05:29:14;;;;;;;22.95;15.00;;;;;;;;;;4809829;29;20055;-77
2021/12/12 05:31:41;;;;;;;20.33;15.15;;;;;;;;;;4810018;29;20070;-76
2021/12/12 05:34:07;;;;;;;20.05;14.85;;;;;;;;;;4793850;29;20059;-76
2021/12/12 05:36:35;;;;;;;21.73;15.70;;;;;;;;;;4809880;29;20063;-78
2021/12/12 05:39:03;;;;;;;23.33;15.20;;;;;;;;;;4793203;29;20058;-76
2021/12/12 05:41:29;;;;;;;23.02;14.82;;;;;;;;;;4809706;29;20054;-77
2021/12/12 05:43:57;;;;;;;20.70;14.57;;;;;;;;;;4808394;29;20051;-77
2021/12/12 05:46:23;;;;;;;20.60;14.30;;;;;;;;;;4809453;29;20487;-76
2021/12/12 05:48:51;;;;;;;21.00;14.65;;;;;;;;;;4809578;29;20055;-76
2021/12/12 05:51:17;;;;;;;20.10;13.80;;;;;;;;;;4779038;29;20116;-78
2021/12/12 05:53:44;;;;;;;17.20;12.23;;;;;;;;;;4792928;29;20476;-78
2021/12/12 05:56:10;;;;;;;19.38;13.73;;;;;;;;;;4808879;29;20046;-77
2021/12/12 05:58:37;;;;;;;19.35;12.07;;;;;;;;;;4792648;29;20055;-80
2021/12/12 06:01:08;;;;;;;22.55;15.00;;;;;;;;;;4808756;29;20077;-79
2021/12/12 06:03:37;;;;;;;21.95;14.35;;;;;;;;;;4778997;29;20075;-78
2021/12/12 06:06:04;;;;;;;19.63;13.80;;;;;;;;;;4793717;29;20050;-78
2021/12/12 06:08:30;;;;;;;22.38;14.10;;;;;;;;;;4774384;29;20086;-78
2021/12/12 06:10:57;;;;;;;21.65;14.90;;;;;;;;;;4781614;29;20067;-77
2021/12/12 06:13:23;;;;;;;23.17;15.82;;;;;;;;;;4791877;29;20433;-78
2021/12/12 06:15:51;;;;;;;24.67;16.10;;;;;;;;;;4792639;29;20055;-77
2021/12/12 06:18:18;;;;;;;21.45;14.50;;;;;;;;;;4808975;29;20089;-77
2021/12/12 06:20:45;;;;;;;23.70;15.70;;;;;;;;;;4809045;29;20131;-77
2021/12/12 06:23:13;;;;;;;23.58;14.48;;;;;;;;;;4792998;29;20456;-77
2021/12/12 06:25:39;;;;;;;29.00;16.55;;;;;;;;;;4792693;29;20065;-78
2021/12/12 06:28:13;;;;;;;30.42;16.60;;;;;;;;;;4792603;29;20115;-79
2021/12/12 06:30:40;;;;;;;29.88;17.50;;;;;;;;;;4793590;29;20121;-79
2021/12/12 06:33:06;;;;;;;27.77;16.42;;;;;;;;;;4777562;29;20123;-79
2021/12/12 06:35:33;;;;;;;30.58;17.40;;;;;;;;;;4792784;29;20050;-78
2021/12/12 06:38:04;;;;;;;27.05;17.38;;;;;;;;;;4792618;29;20059;-78
2021/12/12 06:40:30;;;;;;;27.45;17.13;;;;;;;;;;4793432;29;20476;-78
2021/12/12 06:42:59;;;;;;;31.55;18.00;;;;;;;;;;4791131;29;20054;-78
2021/12/12 06:45:25;;;;;;;29.27;16.58;;;;;;;;;;4793167;29;20047;-78
2021/12/12 06:47:51;;;;;;;28.48;17.42;;;;;;;;;;4777601;29;20146;-80
2021/12/12 06:50:17;;;;;;;27.50;15.25;;;;;;;;;;4792250;29;20464;-78
2021/12/12 06:52:43;;;;;;;30.05;18.20;;;;;;;;;;4777329;29;20380;-77
2021/12/12 06:55:13;;;;;;;28.85;17.17;;;;;;;;;;4777917;29;20388;-78
2021/12/12 06:57:40;;;;;;;30.42;18.98;;;;;;;;;;4777408;29;20054;-78
2021/12/12 07:00:08;;;;;;;37.40;19.85;;;;;;;;;;4792077;29;20060;-78
2021/12/12 07:02:34;;;;;;;34.03;20.17;;;;;;;;;;4808343;29;20054;-78
2021/12/12 07:05:00;;;;;;;33.83;18.73;;;;;;;;;;4791664;29;20409;-77
2021/12/12 07:07:27;;;;;;;32.65;18.98;;;;;;;;;;4808211;29;20066;-79
2021/12/12 07:09:53;;;;;;;37.47;20.25;;;;;;;;;;4777638;29;20055;-81
2021/12/12 07:12:23;;;;;;;35.38;19.23;;;;;;;;;;4776371;29;20055;-78
2021/12/12 07:14:50;;;;;;;40.75;19.63;;;;;;;;;;4791949;29;20356;-78
2021/12/12 07:17:16;;;;;;;30.33;17.52;;;;;;;;;;4773320;30;20054;-79
2021/12/12 07:19:43;;;;;;;40.13;19.35;;;;;;;;;;4786986;29;20550;-78
2021/12/12 07:22:09;;;;;;;35.17;20.02;;;;;;;;;;4790901;29;20066;-79
2021/12/12 07:24:35;;;;;;;40.95;20.55;;;;;;;;;;4792800;29;20067;-78
2021/12/12 07:27:02;;;;;;;36.88;19.83;;;;;;;;;;4791958;29;20105;-80
2021/12/12 07:29:28;;;;;;;33.90;19.67;;;;;;;;;;4789404;29;20039;-80
2021/12/12 07:31:56;;;;;;;37.35;19.75;;;;;;;;;;4776864;29;20053;-81
2021/12/12 07:34:22;;;;;;;44.45;20.95;;;;;;;;;;4777027;29;20468;-79
2021/12/12 07:36:55;;;;;;;50.28;22.02;;;;;;;;;;4791976;29;20050;-79
2021/12/12 07:39:24;;;;;;;46.78;21.13;;;;;;;;;;4777025;29;20039;-80
2021/12/12 07:41:52;;;;;;;39.20;20.45;;;;;;;;;;4791178;29;20061;-79
2021/12/12 07:44:20;;;;;;;46.53;21.65;;;;;;;;;;4775984;29;20047;-81
2021/12/12 07:46:47;;;;;;;37.30;19.52;;;;;;;;;;4791245;29;20133;-81
2021/12/12 07:49:13;;;;;;;45.00;22.02;;;;;;;;;;4773563;30;20122;-79
2021/12/12 07:51:42;;;;;;;38.80;19.83;;;;;;;;;;4791446;29;20507;-78
2021/12/12 07:54:08;;;;;;;39.95;20.50;;;;;;;;;;4801100;29;20046;-80
2021/12/12 07:56:36;;;;;;;41.25;20.08;;;;;;;;;;4809388;29;20184;-78
2021/12/12 07:59:03;;;;;;;40.67;20.77;;;;;;;;;;4809578;29;20043;-79
2021/12/12 08:01:30;;;;;;;43.85;20.98;;;;;;;;;;4790257;29;20434;-82
2021/12/12 08:03:57;;;;;;;43.72;21.38;;;;;;;;;;4786802;29;20050;-80
2021/12/12 08:06:23;;;;;;;41.30;20.02;;;;;;;;;;4790852;29;20062;-79
2021/12/12 08:08:49;;;;;;;40.85;20.17;;;;;;;;;;4807360;29;20073;-80
2021/12/12 08:11:21;;;;;;;37.67;19.55;;;;;;;;;;4776087;29;20046;-79
2021/12/12 08:13:47;;;;;;;38.55;20.10;;;;;;;;;;4772864;30;20143;-77
2021/12/12 08:16:15;;;;;;;41.17;20.73;;;;;;;;;;4785423;29;20361;-77
2021/12/12 08:18:41;;;;;;;47.42;21.38;;;;;;;;;;4790694;29;20380;-81
2021/12/12 08:21:08;;;;;;;41.45;19.88;;;;;;;;;;4791539;29;20102;-80
2021/12/12 08:23:34;;;;;;;43.47;21.42;;;;;;;;;;4817178;29;20066;-80
2021/12/12 08:26:02;;;;;;;37.78;19.92;;;;;;;;;;4794273;29;20478;-79
2021/12/12 08:28:29;;;;;;;41.58;20.85;;;;;;;;;;4803118;29;20209;-79
2021/12/12 08:30:56;;;;;;;43.17;20.58;;;;;;;;;;4791547;29;20079;-80
2021/12/12 08:33:22;;;;;;;40.55;19.00;;;;;;;;;;4807243;29;20487;-78
2021/12/12 08:35:48;;;;;;;41.38;20.55;;;;;;;;;;4776230;30;20412;-75
2021/12/12 08:38:18;;;;;;;38.08;20.13;;;;;;;;;;4806144;29;20043;-82
2021/12/12 08:40:47;;;;;;;36.33;19.27;;;;;;;;;;4774030;29;20438;-79
2021/12/12 08:43:15;;;;;;;43.47;20.73;;;;;;;;;;4792961;29;20058;-83
2021/12/12 08:45:43;;;;;;;47.70;21.10;;;;;;;;;;4776303;30;20063;-81
2021/12/12 08:48:09;;;;;;;56.08;23.17;;;;;;;;;;4776955;30;20047;-81
2021/12/12 08:50:37;;;;;;;49.97;21.63;;;;;;;;;;4787449;29;20051;-81
2021/12/12 08:53:04;;;;;;;49.05;22.10;;;;;;;;;;4793200;29;20055;-82
2021/12/12 08:55:34;;;;;;;49.78;22.65;;;;;;;;;;4794349;29;20035;-81
2021/12/12 08:58:14;;;;;;;44.22;21.75;;;;;;;;;;4779154;29;20444;-81
2021/12/12 09:00:42;;;;;;;47.30;22.60;;;;;;;;;;4779527;29;20386;-81
2021/12/12 09:03:09;;;;;;;47.58;22.45;;;;;;;;;;4766911;30;20404;-81
2021/12/12 09:05:37;;;;;;;44.03;21.58;;;;;;;;;;4777179;29;20062;-81
2021/12/12 09:08:05;;;;;;;57.35;24.17;;;;;;;;;;4793955;29;20484;-79
2021/12/12 09:10:34;;;;;;;48.65;23.02;;;;;;;;;;4779308;29;20054;-79
2021/12/12 09:13:06;;;;;;;55.80;24.50;;;;;;;;;;4793803;29;20050;-80
2021/12/12 09:15:38;;;;;;;56.75;24.33;;;;;;;;;;4775891;30;20078;-81
2021/12/12 09:18:06;;;;;;;66.88;24.70;;;;;;;;;;4775889;30;20056;-82
2021/12/12 09:20:49;;;;;;;51.75;23.05;;;;;;;;;;4790935;29;20049;-80
2021/12/12 09:23:22;;;;;;;57.95;24.80;;;;;;;;;;4790031;29;20132;-81
2021/12/12 09:26:08;;;;;;;56.55;23.95;;;;;;;;;;4778885;29;20158;-81
2021/12/12 09:28:44;;;;;;;66.55;25.83;;;;;;;;;;4793287;29;20126;-81
2021/12/12 09:31:18;;;;;;;54.53;25.33;;;;;;;;;;4778853;29;20104;-82
2021/12/12 09:33:48;;;;;;;57.00;25.70;;;;;;;;;;4791632;29;20070;-79
2021/12/12 09:36:16;;;;;;;60.33;24.63;;;;;;;;;;4793525;29;20047;-81
2021/12/12 09:38:45;;;;;;;57.47;28.38;;;;;;;;;;4793453;29;20046;-79
2021/12/12 09:41:20;;;;;;;55.33;25.33;;;;;;;;;;4793087;29;20066;-82
2021/12/12 09:44:04;;;;;;;60.08;25.48;;;;;;;;;;4792507;29;20061;-81
2021/12/12 09:46:40;;;;;;;52.85;24.38;;;;;;;;;;4775661;30;20051;-81
2021/12/12 09:52:13;;;;;;;52.20;23.77;;;;;;;;;;4788897;29;20515;-79
2021/12/12 09:54:56;;;;;;;47.92;23.48;;;;;;;;;;4778210;29;20081;-78
2021/12/12 09:57:25;;;;;;;53.10;23.15;;;;;;;;;;4792208;29;20055;-80
2021/12/12 10:00:04;;;;;;;51.95;24.10;;;;;;;;;;4784071;29;20039;-82
2021/12/12 10:02:34;;;;;;;57.30;23.73;;;;;;;;;;4792999;29;20054;-78
2021/12/12 10:05:10;;;;;;;47.25;22.17;;;;;;;;;;4778092;29;20065;-79
2021/12/12 10:07:56;;;;;;;54.03;23.98;;;;;;;;;;4776342;29;20141;-80
2021/12/12 10:10:29;;;;;;;60.43;24.07;;;;;;;;;;4793513;29;20078;-80
2021/12/12 10:13:01;;;;;;;50.50;24.00;;;;;;;;;;4792787;29;20395;-80
2021/12/12 10:15:28;;;;;;;50.42;24.52;;;;;;;;;;4793025;29;20445;-78
2021/12/12 10:17:58;;;;;;;47.30;27.08;;;;;;;;;;4778453;29;20472;-78
2021/12/12 10:20:30;;;;;;;44.20;23.92;;;;;;;;;;4778268;29;20051;-80
2021/12/12 10:22:56;;;;;;;41.53;21.77;;;;;;;;;;4777820;29;20046;-79
2021/12/12 10:25:27;;;;;;;58.13;23.33;;;;;;;;;;4793037;29;20054;-80
2021/12/12 10:28:18;;;;;;;48.50;21.05;;;;;;;;;;4791546;29;20376;-79
2021/12/12 10:30:57;;;;;;;42.13;20.80;;;;;;;;;;4775117;30;20046;-78
2021/12/12 10:33:36;;;;;;;52.35;21.20;;;;;;;;;;4774746;30;20130;-81
2021/12/12 10:36:07;;;;;;;43.65;20.25;;;;;;;;;;4789861;30;20062;-82
2021/12/12 10:38:46;;;;;;;38.67;18.70;;;;;;;;;;4776926;29;20066;-84
2021/12/12 10:41:17;;;;;;;49.58;20.10;;;;;;;;;;4786715;29;20039;-82
2021/12/12 10:43:46;;;;;;;38.85;19.77;;;;;;;;;;4777254;29;20598;-83
2021/12/12 10:46:34;;;;;;;40.08;17.75;;;;;;;;;;4776700;29;20047;-83
2021/12/12 11:00:10;;;;;;;43.63;18.60;;;;;;;;;;4671278;30;20126;-83
2021/12/12 11:06:38;;;;;;;25.38;14.82;;;;;;;;;;4723579;30;20201;-83
2021/12/12 11:09:08;;;;;;;35.42;16.23;;;;;;;;;;4690893;30;20140;-82
2021/12/12 11:11:37;;;;;;;31.52;15.38;;;;;;;;;;4711637;30;20056;-81
2021/12/12 11:14:21;;;;;;;25.88;14.27;;;;;;;;;;4705667;30;20499;-82
2021/12/12 11:16:50;;;;;;;28.60;14.27;;;;;;;;;;4716550;30;20088;-80
2021/12/12 11:19:20;;;;;;;24.63;13.18;;;;;;;;;;4717089;30;20162;-80
2021/12/12 11:21:49;;;;;;;23.63;13.00;;;;;;;;;;4774352;30;20070;-81
2021/12/12 11:24:31;;;;;;;20.58;11.90;;;;;;;;;;4774021;30;20088;-80
2021/12/12 11:27:00;;;;;;;14.75;9.43;;;;;;;;;;4774000;30;20051;-81
2021/12/12 11:29:31;;;;;;;13.80;8.52;;;;;;;;;;4772912;29;20047;-81
2021/12/12 11:32:01;;;;;;;15.90;9.02;;;;;;;;;;4775322;30;20128;-79
2021/12/12 11:34:27;;;;;;;12.63;7.72;;;;;;;;;;4755596;30;20118;-81
2021/12/12 11:37:09;;;;;;;9.13;6.40;;;;;;;;;;4765761;30;20112;-81
2021/12/12 11:39:41;;;;;;;12.25;7.38;;;;;;;;;;4759281;30;20043;-79
2021/12/12 11:42:10;;;;;;;8.65;6.30;;;;;;;;;;4758594;30;20051;-79
2021/12/12 11:44:43;;;;;;;10.85;7.25;;;;;;;;;;4773923;30;20371;-79
2021/12/12 11:47:15;;;;;;;11.18;6.47;;;;;;;;;;4758904;30;20047;-77
2021/12/12 11:49:50;;;;;;;9.32;6.03;;;;;;;;;;4767042;30;20112;-79
2021/12/12 11:52:23;;;;;;;7.38;6.03;;;;;;;;;;4758841;30;20141;-78
2021/12/12 11:54:55;;;;;;;8.65;6.20;;;;;;;;;;4773574;30;20476;-78
2021/12/12 11:57:29;;;;;;;7.90;5.82;;;;;;;;;;4755687;30;20127;-80
2021/12/12 12:00:18;;;;;;;9.77;6.60;;;;;;;;;;4756361;30;20061;-81
2021/12/12 12:02:56;;;;;;;7.97;5.63;;;;;;;;;;4757985;30;20055;-77
2021/12/12 12:05:30;;;;;;;9.32;6.35;;;;;;;;;;4777227;30;20464;-77
2021/12/12 12:08:02;;;;;;;8.20;5.90;;;;;;;;;;4773316;30;20135;-79
2021/12/12 12:10:51;;;;;;;10.15;5.88;;;;;;;;;;4758672;30;20284;-78
2021/12/12 12:13:27;;;;;;;9.30;6.43;;;;;;;;;;4789047;30;20062;-81
2021/12/12 12:16:11;;;;;;;12.15;6.88;;;;;;;;;;4756241;30;20044;-79
2021/12/12 12:18:43;;;;;;;12.98;7.80;;;;;;;;;;4785673;30;20047;-73
2021/12/12 12:21:28;;;;;;;12.82;7.13;;;;;;;;;;4773544;30;20063;-73
2021/12/12 12:29:22;;;;;;;9.73;6.60;;;;;;;;;;4806850;29;20070;-73
2021/12/12 12:32:11;;;;;;;11.32;7.53;;;;;;;;;;4789351;29;20063;-75
2021/12/12 12:34:56;;;;;;;10.13;6.90;;;;;;;;;;4772170;30;20059;-74
2021/12/12 12:37:41;;;;;;;13.55;7.75;;;;;;;;;;4789124;30;20047;-75
2021/12/12 12:40:26;;;;;;;12.15;7.25;;;;;;;;;;4773463;30;20121;-75
2021/12/12 12:43:10;;;;;;;11.88;6.65;;;;;;;;;;4788828;30;20063;-76
2021/12/12 12:45:55;;;;;;;9.75;6.72;;;;;;;;;;4786863;30;20055;-72
2021/12/12 12:48:40;;;;;;;12.32;7.20;;;;;;;;;;4771567;30;20051;-72
2021/12/12 12:51:33;;;;;;;12.15;7.10;;;;;;;;;;4765200;30;20070;-72
2021/12/12 12:53:59;;;;;;;11.80;7.20;;;;;;;;;;4751761;30;20070;-73
2021/12/12 12:56:44;;;;;;;11.32;7.47;;;;;;;;;;4788458;30;20055;-74
2021/12/12 12:59:18;;;;;;;10.95;6.80;;;;;;;;;;4802417;29;20062;-72
2021/12/12 13:01:58;;;;;;;15.25;7.72;;;;;;;;;;4769253;30;20144;-72
2021/12/12 13:04:27;;;;;;;13.52;6.85;;;;;;;;;;4786946;30;20134;-73
2021/12/12 13:07:02;;;;;;;10.60;6.88;;;;;;;;;;4772995;30;20059;-73
2021/12/12 13:09:48;;;;;;;12.95;7.03;;;;;;;;;;4806780;29;20416;-72
2021/12/12 13:12:20;;;;;;;9.43;6.43;;;;;;;;;;4789910;29;20067;-73
2021/12/12 13:15:03;;;;;;;10.18;6.95;;;;;;;;;;4783969;29;20081;-72
2021/12/12 13:17:49;;;;;;;10.70;6.82;;;;;;;;;;4806305;29;20137;-73
2021/12/12 13:20:18;;;;;;;13.63;8.02;;;;;;;;;;4807929;29;20070;-73
2021/12/12 13:22:51;;;;;;;13.85;7.00;;;;;;;;;;4793532;29;20448;-73
2021/12/12 13:25:20;;;;;;;11.15;6.90;;;;;;;;;;4793834;29;20062;-73
2021/12/12 13:28:08;;;;;;;16.08;7.30;;;;;;;;;;4793791;29;20138;-73
2021/12/12 13:30:43;;;;;;;11.45;7.05;;;;;;;;;;4780063;29;20134;-73
2021/12/12 13:33:18;;;;;;;11.35;6.35;;;;;;;;;;4782162;29;20078;-73
2021/12/12 13:36:03;;;;;;;12.40;6.47;;;;;;;;;;4793850;29;20119;-73
2021/12/12 13:38:37;;;;;;;14.05;7.07;;;;;;;;;;4793782;29;20431;-73
2021/12/12 13:41:15;;;;;;;13.35;7.38;;;;;;;;;;4793497;29;20055;-74
2021/12/12 13:44:04;;;;;;;13.10;6.88;;;;;;;;;;4793513;29;20055;-74
2021/12/12 13:46:34;;;;;;;16.92;7.63;;;;;;;;;;4793450;29;20451;-73
2021/12/12 13:49:18;;;;;;;14.35;7.80;;;;;;;;;;4794036;29;20134;-73
2021/12/12 13:51:49;;;;;;;16.42;7.47;;;;;;;;;;4807829;29;20598;-73
2021/12/12 13:54:32;;;;;;;19.90;8.30;;;;;;;;;;4808750;29;20135;-73
2021/12/12 13:57:02;;;;;;;17.95;8.68;;;;;;;;;;4792627;29;20491;-73
2021/12/12 13:59:28;;;;;;;11.48;7.72;;;;;;;;;;4806199;29;20241;-74
2021/12/12 14:02:10;;;;;;;17.73;8.18;;;;;;;;;;4791740;29;20069;-74
2021/12/12 14:04:50;;;;;;;18.25;8.82;;;;;;;;;;4797748;29;20043;-73
2021/12/12 14:07:17;;;;;;;17.35;8.88;;;;;;;;;;4786733;29;20059;-73
2021/12/12 14:09:45;;;;;;;17.00;8.88;;;;;;;;;;4775449;29;20075;-73
2021/12/12 14:12:11;;;;;;;20.02;8.95;;;;;;;;;;4787331;30;20070;-73
2021/12/12 14:14:42;;;;;;;14.52;8.48;;;;;;;;;;4787988;30;20104;-73
2021/12/12 14:17:10;;;;;;;14.07;7.85;;;;;;;;;;4790442;30;20476;-73
2021/12/12 14:19:36;;;;;;;16.05;8.65;;;;;;;;;;4774121;30;20452;-73
2021/12/12 14:22:04;;;;;;;18.40;9.02;;;;;;;;;;4759808;30;20058;-73
2021/12/12 14:24:31;;;;;;;20.80;9.32;;;;;;;;;;4788055;30;20082;-74
2021/12/12 14:26:59;;;;;;;16.70;10.15;;;;;;;;;;4790548;30;20058;-73
2021/12/12 14:29:26;;;;;;;22.08;8.55;;;;;;;;;;4775352;29;20051;-73
2021/12/12 14:32:00;;;;;;;31.83;10.50;;;;;;;;;;4789600;30;20055;-73
2021/12/12 14:34:35;;;;;;;33.08;10.50;;;;;;;;;;4776005;30;20047;-73
2021/12/12 14:37:05;;;;;;;25.45;10.00;;;;;;;;;;4787238;30;20059;-72
2021/12/12 14:39:32;;;;;;;22.77;9.45;;;;;;;;;;4774085;30;20066;-74
2021/12/12 14:42:04;;;;;;;27.65;10.25;;;;;;;;;;4790819;30;20055;-74
2021/12/12 14:44:36;;;;;;;17.90;9.40;;;;;;;;;;4763707;30;20132;-75
2021/12/12 14:47:08;;;;;;;25.90;10.02;;;;;;;;;;4790257;30;20126;-75
2021/12/12 14:49:38;;;;;;;23.63;10.38;;;;;;;;;;4790219;30;20051;-74
2021/12/12 14:52:09;;;;;;;21.05;10.57;;;;;;;;;;4774864;30;20086;-75
2021/12/12 14:54:39;;;;;;;26.25;13.23;;;;;;;;;;4790109;30;20124;-75
2021/12/12 14:57:09;;;;;;;26.65;13.02;;;;;;;;;;4805972;29;20145;-74
2021/12/12 14:59:40;;;;;;;34.53;13.68;;;;;;;;;;4792228;29;20066;-75
2021/12/12 15:02:12;;;;;;;22.55;11.50;;;;;;;;;;4792735;29;20074;-75
2021/12/12 15:04:40;;;;;;;22.33;10.48;;;;;;;;;;4800700;29;20093;-74
2021/12/12 15:07:09;;;;;;;23.35;11.13;;;;;;;;;;4790492;29;20058;-74
2021/12/12 15:09:37;;;;;;;27.73;12.55;;;;;;;;;;4808093;29;20058;-74
2021/12/12 15:12:10;;;;;;;21.38;12.07;;;;;;;;;;4791525;29;20059;-75
2021/12/12 15:14:37;;;;;;;30.60;14.13;;;;;;;;;;4792346;29;20069;-75
2021/12/12 15:17:08;;;;;;;22.55;13.00;;;;;;;;;;4792243;29;20059;-74
2021/12/12 15:19:35;;;;;;;27.08;14.32;;;;;;;;;;4791392;29;20379;-75
2021/12/12 15:22:06;;;;;;;26.33;13.45;;;;;;;;;;4792007;29;20368;-75
2021/12/12 15:24:33;;;;;;;30.95;14.00;;;;;;;;;;4806222;29;20070;-74